createdAt,value
2018-07-04T00:00:39.887Z,2.60
2018-07-04T00:03:21.007Z,2.60
2018-07-04T00:06:00.978Z,2.30
2018-07-04T00:08:41.496Z,2.70
2018-07-04T00:11:22.566Z,3.00
2018-07-04T00:14:03.523Z,1.93
2018-07-04T00:16:44.924Z,2.40
2018-07-04T00:19:25.189Z,2.20
2018-07-04T00:22:06.893Z,2.77
2018-07-04T00:24:46.917Z,2.10
2018-07-04T00:27:26.920Z,2.80
2018-07-04T00:30:08.992Z,2.50
2018-07-04T00:32:48.993Z,2.57
2018-07-04T00:35:28.804Z,2.63
2018-07-04T00:38:08.857Z,2.27
2018-07-04T00:40:48.610Z,3.10
2018-07-04T00:43:28.727Z,2.87
2018-07-04T00:46:09.238Z,2.70
2018-07-04T00:48:49.447Z,3.30
2018-07-04T00:51:29.502Z,2.50
2018-07-04T00:54:11.050Z,2.90
2018-07-04T00:56:51.247Z,2.53
2018-07-04T00:59:32.575Z,2.60
2018-07-04T01:02:13.194Z,3.00
2018-07-04T01:04:53.808Z,2.60
2018-07-04T01:07:33.793Z,2.30
2018-07-04T01:10:13.905Z,2.27
2018-07-04T01:12:54.380Z,3.57
2018-07-04T01:15:34.694Z,2.90
2018-07-04T01:18:14.911Z,3.20
2018-07-04T01:21:00.035Z,2.50
2018-07-04T01:23:40.276Z,3.00
2018-07-04T01:26:20.560Z,2.77
2018-07-04T01:29:00.683Z,2.83
2018-07-04T01:31:40.948Z,2.70
2018-07-04T01:34:20.847Z,2.60
2018-07-04T01:37:01.827Z,2.80
2018-07-04T01:39:42.737Z,2.00
2018-07-04T01:42:22.754Z,3.40
2018-07-04T01:45:02.739Z,2.70
2018-07-04T01:47:43.541Z,3.63
2018-07-04T01:50:23.448Z,3.10
2018-07-04T01:53:03.518Z,2.97
2018-07-04T01:55:43.908Z,3.10
2018-07-04T01:58:24.186Z,3.17
2018-07-04T02:01:04.083Z,2.50
2018-07-04T02:03:44.477Z,2.50
2018-07-04T02:06:24.571Z,3.40
2018-07-04T02:09:05.579Z,3.10
2018-07-04T02:11:45.855Z,3.97
2018-07-04T02:14:26.802Z,3.50
2018-07-04T02:17:06.910Z,3.10
2018-07-04T02:19:46.708Z,3.37
2018-07-04T02:22:27.098Z,2.97
2018-07-04T02:25:07.491Z,2.97
2018-07-04T02:27:47.475Z,4.07
2018-07-04T02:30:27.628Z,3.30
2018-07-04T02:33:07.769Z,3.30
2018-07-04T02:35:47.582Z,2.67
2018-07-04T02:38:27.894Z,3.30
2018-07-04T02:41:08.343Z,3.67
2018-07-04T02:43:48.286Z,4.03
2018-07-04T02:46:33.468Z,3.30
2018-07-04T02:49:13.460Z,4.10
2018-07-04T02:51:53.396Z,2.80
2018-07-04T02:54:33.701Z,2.60
2018-07-04T02:57:13.722Z,3.13
2018-07-04T02:59:53.999Z,3.90
2018-07-04T03:02:34.022Z,3.60
2018-07-04T03:05:13.854Z,3.07
2018-07-04T03:07:54.111Z,3.90
2018-07-04T03:10:36.101Z,3.43
2018-07-04T03:13:16.106Z,3.17
2018-07-04T03:15:55.844Z,3.40
2018-07-04T03:18:35.771Z,2.90
2018-07-04T03:21:15.595Z,3.27
2018-07-04T03:23:55.459Z,4.70
2018-07-04T03:26:35.322Z,2.80
2018-07-04T03:29:15.286Z,3.07
2018-07-04T03:31:55.254Z,3.50
2018-07-04T03:34:35.670Z,3.70
2018-07-04T03:37:15.762Z,3.57
2018-07-04T03:39:55.801Z,3.70
2018-07-04T03:42:35.767Z,3.13
2018-07-04T03:45:15.631Z,2.83
2018-07-04T03:47:55.568Z,3.63
2018-07-04T03:50:35.677Z,3.80
2018-07-04T03:53:15.715Z,3.13
2018-07-04T03:55:56.770Z,3.90
2018-07-04T03:58:36.909Z,4.07
2018-07-04T04:01:17.007Z,3.90
2018-07-04T04:03:58.589Z,3.50
2018-07-04T04:06:39.289Z,3.70
2018-07-04T04:09:19.331Z,3.50
2018-07-04T04:11:59.225Z,3.97
2018-07-04T04:14:39.481Z,3.57
2018-07-04T04:17:19.788Z,3.77
2018-07-04T04:19:59.621Z,4.40
2018-07-04T04:22:39.903Z,3.50
2018-07-04T04:25:19.867Z,3.17
2018-07-04T04:27:59.855Z,3.40
2018-07-04T04:30:40.055Z,3.47
2018-07-04T04:33:20.108Z,3.93
2018-07-04T04:36:01.092Z,4.30
2018-07-04T04:38:41.250Z,5.80
2018-07-04T04:41:22.240Z,5.60
2018-07-04T04:44:02.451Z,6.00
2018-07-04T04:46:42.658Z,5.00
2018-07-04T04:49:22.684Z,4.77
2018-07-04T04:52:02.825Z,3.90
2018-07-04T04:54:43.089Z,3.90
2018-07-04T04:57:23.440Z,2.97
2018-07-04T05:00:03.549Z,3.80
2018-07-04T05:02:43.605Z,3.70
2018-07-04T05:05:24.530Z,3.40
2018-07-04T05:08:04.695Z,3.83
2018-07-04T05:10:45.127Z,4.20
2018-07-04T05:13:25.487Z,3.60
2018-07-04T05:16:05.447Z,5.40
2018-07-04T05:18:46.540Z,4.90
2018-07-04T05:21:26.571Z,5.60
2018-07-04T05:24:06.722Z,6.33
2018-07-04T05:26:46.616Z,7.07
2018-07-04T05:29:26.677Z,6.70
2018-07-04T05:32:06.795Z,7.07
2018-07-04T05:34:46.803Z,7.33
2018-07-04T05:37:27.002Z,7.13
2018-07-04T05:40:07.234Z,6.37
2018-07-04T05:42:47.519Z,7.30
2018-07-04T05:45:27.867Z,6.60
2018-07-04T05:48:07.931Z,6.20
2018-07-04T05:50:48.178Z,6.87
2018-07-04T05:53:28.511Z,5.73
2018-07-04T05:56:08.488Z,4.90
2018-07-04T05:58:48.580Z,4.40
2018-07-04T06:01:28.515Z,4.50
2018-07-04T06:04:08.958Z,4.20
2018-07-04T06:06:49.455Z,5.10
2018-07-04T06:09:29.783Z,5.37
2018-07-04T06:12:09.845Z,7.27
2018-07-04T06:14:50.217Z,7.40
2018-07-04T06:17:30.457Z,7.57
2018-07-04T06:20:10.802Z,7.70
2018-07-04T06:22:51.077Z,7.80
2018-07-04T06:25:31.649Z,8.20
2018-07-04T06:28:12.123Z,7.30
2018-07-04T06:30:52.416Z,5.97
2018-07-04T06:33:32.453Z,6.83
2018-07-04T06:36:12.983Z,5.90
2018-07-04T06:38:40.640Z,7.20
2018-07-04T06:41:08.279Z,5.90
2018-07-04T06:43:36.273Z,5.70
2018-07-04T06:46:04.063Z,5.60
2018-07-04T06:48:31.879Z,4.87
2018-07-04T06:50:59.780Z,4.20
2018-07-04T06:53:27.583Z,4.43
2018-07-04T06:55:55.535Z,4.50
2018-07-04T06:58:23.489Z,4.70
2018-07-04T07:00:51.465Z,5.10
2018-07-04T07:03:32.281Z,4.80
2018-07-04T07:06:12.360Z,4.13
2018-07-04T07:08:52.229Z,5.43
2018-07-04T07:11:32.565Z,5.17
2018-07-04T07:14:12.841Z,4.90
2018-07-04T07:16:53.045Z,4.80
2018-07-04T07:19:33.039Z,5.30
2018-07-04T07:22:12.965Z,4.03
2018-07-04T07:24:53.597Z,4.00
2018-07-04T07:27:34.141Z,4.63
2018-07-04T07:30:14.084Z,4.90
2018-07-04T07:32:55.777Z,4.60
2018-07-04T07:35:35.999Z,4.30
2018-07-04T07:38:15.998Z,4.27
2018-07-04T07:40:56.308Z,5.67
2018-07-04T07:43:36.603Z,5.30
2018-07-04T07:46:16.970Z,4.43
2018-07-04T07:48:56.930Z,5.50
2018-07-04T07:51:37.030Z,4.83
2018-07-04T07:54:18.368Z,5.47
2018-07-04T07:56:58.255Z,4.03
2018-07-04T07:59:38.433Z,4.43
2018-07-04T08:02:18.685Z,4.53
2018-07-04T08:04:58.760Z,4.73
2018-07-04T08:07:38.992Z,4.87
2018-07-04T08:10:19.361Z,4.80
2018-07-04T08:13:00.350Z,5.53
2018-07-04T08:15:40.621Z,5.60
2018-07-04T08:18:21.471Z,5.97
2018-07-04T08:21:01.747Z,5.40
2018-07-04T08:23:41.783Z,5.30
2018-07-04T08:26:22.079Z,5.87
2018-07-04T08:29:02.193Z,4.83
2018-07-04T08:31:42.479Z,5.03
2018-07-04T08:34:23.032Z,4.50
2018-07-04T08:37:03.090Z,5.10
2018-07-04T08:39:43.328Z,4.90
2018-07-04T08:42:23.523Z,5.30
2018-07-04T08:45:03.643Z,4.50
2018-07-04T08:47:44.030Z,5.10
2018-07-04T08:50:24.397Z,4.40
2018-07-04T08:53:05.448Z,4.70
2018-07-04T08:55:45.512Z,4.90
2018-07-04T08:58:25.921Z,4.00
2018-07-04T09:01:06.124Z,4.00
2018-07-04T09:03:46.488Z,3.47
2018-07-04T09:06:26.569Z,3.80
2018-07-04T09:09:06.493Z,3.80
2018-07-04T09:11:46.906Z,3.13
2018-07-04T09:14:26.799Z,2.77
2018-07-04T09:17:06.867Z,2.60
2018-07-04T09:19:47.356Z,2.33
2018-07-04T09:22:27.642Z,2.60
2018-07-04T09:25:07.866Z,3.07
2018-07-04T09:27:47.822Z,2.70
2018-07-04T09:30:28.243Z,3.40
2018-07-04T09:33:08.591Z,2.90
2018-07-04T09:35:48.961Z,2.80
2018-07-04T09:38:29.085Z,3.60
2018-07-04T09:41:09.059Z,2.50
2018-07-04T09:43:49.736Z,2.40
2018-07-04T09:46:30.267Z,3.50
2018-07-04T09:49:10.473Z,2.50
2018-07-04T09:51:50.475Z,3.00
2018-07-04T09:54:30.784Z,3.00
2018-07-04T09:57:11.790Z,2.83
2018-07-04T09:59:52.726Z,2.30
2018-07-04T10:02:32.846Z,2.23
2018-07-04T10:05:13.033Z,1.90
2018-07-04T10:07:53.116Z,2.13
2018-07-04T10:10:33.331Z,2.20
2018-07-04T10:13:13.788Z,3.37
2018-07-04T10:15:54.092Z,2.87
2018-07-04T10:18:34.112Z,2.60
2018-07-04T10:21:14.774Z,2.30
2018-07-04T10:23:54.731Z,2.93
2018-07-04T10:26:34.796Z,2.20
2018-07-04T10:29:15.140Z,2.83
2018-07-04T10:31:55.205Z,3.20
2018-07-04T10:34:35.729Z,2.17
2018-07-04T10:37:15.810Z,2.90
2018-07-04T10:39:56.052Z,2.20
2018-07-04T10:42:36.191Z,2.77
2018-07-04T10:45:16.293Z,2.37
2018-07-04T10:47:56.353Z,2.70
2018-07-04T10:50:36.386Z,3.03
2018-07-04T10:53:17.826Z,2.47
2018-07-04T10:55:57.574Z,2.67
2018-07-04T10:58:37.663Z,1.70
2018-07-04T11:01:17.895Z,2.50
2018-07-04T11:03:58.385Z,2.43
2018-07-04T11:06:38.655Z,3.13
2018-07-04T11:09:19.752Z,2.50
2018-07-04T11:11:59.902Z,1.50
2018-07-04T11:14:40.234Z,1.97
2018-07-04T11:17:20.467Z,1.60
2018-07-04T11:20:00.940Z,2.00
2018-07-04T11:22:41.416Z,1.60
2018-07-04T11:25:21.897Z,2.20
2018-07-04T11:28:02.297Z,1.73
2018-07-04T11:30:42.603Z,1.60
2018-07-04T11:33:22.950Z,2.13
2018-07-04T11:36:03.257Z,1.60
2018-07-04T11:38:44.414Z,1.70
2018-07-04T11:41:25.065Z,2.27
2018-07-04T11:44:05.506Z,1.60
2018-07-04T11:46:33.203Z,1.40
2018-07-04T11:49:02.071Z,1.20
2018-07-04T11:51:30.747Z,1.20
2018-07-04T11:53:58.464Z,1.53
2018-07-04T11:56:26.052Z,1.87
2018-07-04T11:58:53.638Z,1.90
2018-07-04T12:01:22.153Z,1.23
2018-07-04T12:04:02.975Z,1.30
2018-07-04T12:06:43.629Z,1.40
2018-07-04T12:09:11.337Z,1.00
2018-07-04T12:11:38.892Z,1.30
2018-07-04T12:14:07.777Z,1.33
2018-07-04T12:16:35.599Z,1.80
2018-07-04T12:19:03.111Z,1.50
2018-07-04T12:21:30.641Z,1.57
2018-07-04T12:23:58.333Z,1.40
2018-07-04T12:26:25.852Z,1.53
2018-07-04T12:28:53.430Z,2.17
2018-07-04T12:31:20.948Z,1.97
2018-07-04T12:33:48.565Z,1.57
2018-07-04T12:36:16.263Z,1.90
2018-07-04T12:38:43.840Z,1.40
2018-07-04T12:41:11.390Z,1.80
2018-07-04T12:43:39.059Z,1.60
2018-07-04T12:46:06.918Z,1.30
2018-07-04T12:48:34.676Z,2.20
2018-07-04T12:51:03.510Z,1.80
2018-07-04T12:53:31.411Z,1.50
2018-07-04T12:56:11.470Z,1.70
2018-07-04T12:58:51.555Z,1.73
2018-07-04T13:01:31.531Z,1.60
2018-07-04T13:04:11.523Z,1.60
2018-07-04T13:06:51.414Z,1.57
2018-07-04T13:09:31.386Z,1.67
2018-07-04T13:12:11.517Z,1.77
2018-07-04T13:14:52.417Z,1.97
2018-07-04T13:17:33.055Z,1.60
2018-07-04T13:20:13.598Z,1.83
2018-07-04T13:22:54.404Z,1.60
2018-07-04T13:25:35.118Z,1.40
2018-07-04T13:28:15.183Z,1.47
2018-07-04T13:30:55.037Z,1.73
2018-07-04T13:33:35.814Z,1.73
2018-07-04T13:36:17.407Z,2.20
2018-07-04T13:38:57.384Z,1.30
2018-07-04T13:41:37.484Z,1.97
2018-07-04T13:44:17.837Z,1.70
2018-07-04T13:46:57.897Z,2.20
2018-07-04T13:49:38.359Z,1.63
2018-07-04T13:52:19.502Z,1.23
2018-07-04T13:55:01.233Z,1.70
2018-07-04T13:57:41.577Z,1.20
2018-07-04T14:00:22.124Z,2.50
2018-07-04T14:03:02.894Z,1.80
2018-07-04T14:05:44.478Z,1.17
2018-07-04T14:08:24.464Z,1.33
2018-07-04T14:11:04.986Z,1.13
2018-07-04T14:13:45.085Z,1.50
2018-07-04T14:16:25.284Z,1.07
2018-07-04T14:19:05.303Z,1.93
2018-07-04T14:21:45.459Z,1.40
2018-07-04T14:24:25.700Z,1.10
2018-07-04T14:27:05.745Z,1.33
2018-07-04T14:29:47.070Z,1.23
2018-07-04T14:32:27.550Z,1.23
2018-07-04T14:35:08.210Z,1.30
2018-07-04T14:37:48.870Z,1.60
2018-07-04T14:40:29.324Z,1.47
2018-07-04T14:43:09.657Z,1.60
2018-07-04T14:45:50.141Z,1.10
2018-07-04T14:48:30.584Z,1.67
2018-07-04T14:51:10.883Z,1.40
2018-07-04T14:53:51.712Z,2.80
2018-07-04T14:56:32.227Z,2.03
2018-07-04T14:59:12.256Z,1.93
2018-07-04T15:01:52.600Z,1.30
2018-07-04T15:04:33.092Z,1.33
2018-07-04T15:07:13.650Z,1.40
2018-07-04T15:09:53.943Z,1.27
2018-07-04T15:12:34.046Z,1.50
2018-07-04T15:15:14.727Z,2.30
2018-07-04T15:17:55.453Z,1.70
2018-07-04T15:20:35.768Z,1.87
2018-07-04T15:23:17.173Z,2.00
2018-07-04T15:25:58.026Z,1.90
2018-07-04T15:28:37.891Z,1.67
2018-07-04T15:31:18.053Z,1.77
2018-07-04T15:33:58.584Z,2.70
2018-07-04T15:36:38.574Z,1.80
2018-07-04T15:39:20.699Z,3.17
2018-07-04T15:42:01.490Z,2.10
2018-07-04T15:44:41.170Z,2.10
2018-07-04T15:47:20.973Z,1.87
2018-07-04T15:50:00.846Z,1.97
2018-07-04T15:52:41.755Z,2.60
2018-07-04T15:55:22.281Z,1.80
2018-07-04T15:58:02.723Z,1.90
2018-07-04T16:00:42.967Z,2.47
2018-07-04T16:03:23.215Z,2.10
2018-07-04T16:06:03.148Z,2.10
2018-07-04T16:08:43.040Z,2.27
2018-07-04T16:11:22.944Z,2.20
2018-07-04T16:14:03.297Z,2.50
2018-07-04T16:16:43.281Z,2.80
2018-07-04T16:19:24.068Z,1.97
2018-07-04T16:22:04.628Z,2.10
2018-07-04T16:24:44.575Z,2.57
2018-07-04T16:27:25.256Z,2.30
2018-07-04T16:30:05.742Z,2.07
2018-07-04T16:32:46.063Z,2.70
2018-07-04T16:35:25.985Z,2.53
2018-07-04T16:38:08.654Z,2.30
2018-07-04T16:40:50.009Z,2.20
2018-07-04T16:43:30.263Z,2.93
2018-07-04T16:46:12.084Z,2.30
2018-07-04T16:48:52.494Z,2.50
2018-07-04T16:51:32.885Z,2.43
2018-07-04T16:54:12.784Z,2.27
2018-07-04T16:56:54.321Z,2.40
2018-07-04T16:59:34.793Z,2.50
2018-07-04T17:02:14.923Z,2.37
2018-07-04T17:04:55.104Z,2.10
2018-07-04T17:07:35.825Z,3.00
2018-07-04T17:10:16.036Z,2.50
2018-07-04T17:12:56.186Z,2.20
2018-07-04T17:15:36.529Z,2.40
2018-07-04T17:18:17.562Z,2.07
2018-07-04T17:20:58.028Z,1.90
2018-07-04T17:23:38.348Z,2.23
2018-07-04T17:26:19.421Z,2.23
2018-07-04T17:29:01.041Z,2.80
2018-07-04T17:31:42.160Z,2.60
2018-07-04T17:34:22.494Z,2.50
2018-07-04T17:37:03.048Z,2.33
2018-07-04T17:39:43.585Z,2.60
2018-07-04T17:42:24.132Z,2.27
2018-07-04T17:45:05.819Z,2.50
2018-07-04T17:47:46.240Z,2.30
2018-07-04T17:50:26.923Z,2.30
2018-07-04T17:53:07.308Z,2.67
2018-07-04T17:55:48.473Z,2.27
2018-07-04T17:58:29.852Z,2.40
2018-07-04T18:01:09.991Z,2.87
2018-07-04T18:03:50.184Z,3.00
2018-07-04T18:06:30.545Z,2.57
2018-07-04T18:09:10.885Z,2.20
2018-07-04T18:11:51.258Z,2.70
2018-07-04T18:14:32.582Z,2.37
2018-07-04T18:17:13.218Z,2.20
2018-07-04T18:19:53.299Z,3.07
2018-07-04T18:22:33.534Z,2.77
2018-07-04T18:25:14.553Z,2.87
2018-07-04T18:27:54.910Z,3.07
2018-07-04T18:30:35.208Z,2.27
2018-07-04T18:33:15.555Z,3.10
2018-07-04T18:35:57.501Z,2.37
2018-07-04T18:38:37.622Z,2.50
2018-07-04T18:41:17.810Z,2.33
2018-07-04T18:43:58.143Z,3.20
2018-07-04T18:46:38.322Z,3.10
2018-07-04T18:49:18.632Z,4.40
2018-07-04T18:51:59.002Z,3.50
2018-07-04T18:54:39.475Z,2.47
2018-07-04T18:57:19.536Z,3.00
2018-07-04T19:00:00.202Z,3.60
2018-07-04T19:02:40.836Z,3.30
2018-07-04T19:05:20.840Z,2.90
2018-07-04T19:08:01.061Z,3.27
2018-07-04T19:10:41.132Z,2.80
2018-07-04T19:13:21.437Z,3.10
2018-07-04T19:16:01.791Z,3.17
2018-07-04T19:18:42.489Z,2.90
2018-07-04T19:21:23.117Z,2.63
2018-07-04T19:24:05.074Z,2.73
2018-07-04T19:26:46.142Z,3.00
2018-07-04T19:29:26.617Z,3.10
2018-07-04T19:32:06.665Z,2.33
2018-07-04T19:34:46.732Z,2.77
2018-07-04T19:37:27.114Z,2.73
2018-07-04T19:40:07.419Z,2.77
2018-07-04T19:42:47.712Z,2.10
2018-07-04T19:45:28.187Z,2.30
2018-07-04T19:48:09.000Z,2.23
2018-07-04T19:50:49.436Z,2.53
2018-07-04T19:53:29.954Z,2.73
2018-07-04T19:56:10.394Z,2.23
2018-07-04T19:58:50.661Z,2.83
2018-07-04T20:01:32.082Z,2.80
2018-07-04T20:04:12.337Z,2.73
2018-07-04T20:06:53.555Z,2.70
2018-07-04T20:09:34.050Z,2.87
2018-07-04T20:12:14.429Z,2.40
2018-07-04T20:14:54.855Z,2.40
2018-07-04T20:17:35.156Z,2.70
2018-07-04T20:20:15.920Z,2.03
2018-07-04T20:22:56.894Z,2.10
2018-07-04T20:25:37.328Z,2.50
2018-07-04T20:28:17.520Z,2.73
2018-07-04T20:30:57.718Z,3.00
2018-07-04T20:33:37.809Z,3.13
2018-07-04T20:36:18.282Z,2.40
2018-07-04T20:38:59.013Z,3.23
2018-07-04T20:41:39.358Z,2.53
2018-07-04T20:44:20.592Z,2.17
2018-07-04T20:47:00.963Z,2.60
2018-07-04T20:49:43.946Z,2.43
2018-07-04T20:52:25.030Z,2.53
2018-07-04T20:55:06.317Z,3.43
2018-07-04T20:57:46.700Z,2.70
2018-07-04T21:00:27.330Z,2.80
2018-07-04T21:03:08.204Z,2.73
2018-07-04T21:05:48.637Z,2.80
2018-07-04T21:08:29.070Z,2.40
2018-07-04T21:11:09.525Z,2.47
2018-07-04T21:13:50.026Z,2.50
2018-07-04T21:16:30.280Z,2.43
2018-07-04T21:19:11.835Z,3.23
2018-07-04T21:21:52.971Z,2.93
2018-07-04T21:24:33.280Z,2.97
2018-07-04T21:27:14.553Z,2.73
2018-07-04T21:29:54.767Z,3.50
2018-07-04T21:32:36.092Z,2.70
2018-07-04T21:35:16.472Z,2.20
2018-07-04T21:37:56.475Z,2.83
2018-07-04T21:40:36.601Z,2.63
2018-07-04T21:43:17.895Z,2.70
2018-07-04T21:45:58.012Z,2.67
2018-07-04T21:48:38.548Z,2.37
2018-07-04T21:51:18.717Z,2.93
2018-07-04T21:54:00.014Z,2.87
2018-07-04T21:56:40.565Z,3.27
2018-07-04T21:59:20.713Z,3.13
2018-07-04T22:02:01.568Z,3.47
2018-07-04T22:04:42.029Z,2.83
2018-07-04T22:07:23.738Z,3.93
2018-07-04T22:10:04.331Z,3.10
2018-07-04T22:12:44.691Z,2.80
2018-07-04T22:15:24.928Z,2.93
2018-07-04T22:18:06.421Z,3.43
2018-07-04T22:20:47.054Z,2.87
2018-07-04T22:23:28.022Z,3.10
2018-07-04T22:26:09.309Z,3.97
2018-07-04T22:28:49.705Z,2.93
2018-07-04T22:31:30.263Z,3.10
2018-07-04T22:34:10.571Z,3.00
2018-07-04T22:36:51.128Z,2.87
2018-07-04T22:39:31.416Z,3.70
2018-07-04T22:42:13.367Z,2.83
2018-07-04T22:44:54.108Z,3.40
2018-07-04T22:47:34.680Z,4.10
2018-07-04T22:50:15.125Z,2.97
2018-07-04T22:52:55.362Z,3.20
2018-07-04T22:55:36.680Z,3.17
2018-07-04T22:58:17.413Z,3.50
2018-07-04T23:00:58.723Z,3.70
2018-07-04T23:03:39.005Z,3.03
2018-07-04T23:06:19.586Z,3.53
2018-07-04T23:08:59.830Z,3.30
2018-07-04T23:11:40.524Z,3.57
2018-07-04T23:14:20.924Z,2.80
2018-07-04T23:17:01.294Z,3.47
2018-07-04T23:19:42.220Z,3.67
2018-07-04T23:22:23.810Z,4.23
2018-07-04T23:25:05.365Z,3.80
2018-07-04T23:27:46.030Z,3.07
2018-07-04T23:30:26.951Z,3.73
2018-07-04T23:33:07.262Z,4.13
2018-07-04T23:35:47.630Z,3.73
2018-07-04T23:38:27.606Z,2.80
2018-07-04T23:41:07.907Z,3.57
2018-07-04T23:43:48.343Z,3.00
2018-07-04T23:46:29.216Z,3.93
2018-07-04T23:49:09.677Z,3.63
2018-07-04T23:51:50.075Z,3.67
2018-07-04T23:54:30.443Z,3.37
2018-07-04T23:57:10.819Z,3.87
2018-07-04T23:59:51.676Z,4.03
